RJTY/OKO METAR and TAF weather

Enter ICAO airport designator
Station Type Date Time Source
RJTY METAR 2019/04/25 11:56 UTC NOAA

RJTY 251156Z AUTO 16003KT 10SM BKN060 20/17 A2968 RMK AO2 SLP050 T02040166 10240 20204 52022 FZRANO $


Station Type Date Time Source
RJTY Decoded METAR 2019/04/25 11:56 UTC NOAA

Yokota Ab, Japan (RJTY) 35-45N 139-21E 142M
Apr 25, 2019 - 07:56 AM EDT / 2019.04.25 1156 UTC
Wind: from the SSE (160 degrees) at 3 MPH (3 KT):0
Visibility: 10 mile(s):0
Sky conditions: mostly cloudy
Temperature: 68.7 F (20.4 C)
Dew Point: 61.9 F (16.6 C)
Relative Humidity: 78%
Pressure (altimeter): 29.68 in. Hg (1005 hPa)
Pressure tendency: 0.06 inches (2.2 hPa) higher than three hours ago
ob: RJTY 251156Z AUTO 16003KT 10SM BKN060 20/17 A2968 RMK AO2 SLP050 T02040166 10240 20204 52022 FZRANO
cycle: 12

Station Type Date Time Source
RJTY TAF 2019/04/25 09:57 UTC NOAA

TAF
AMD RJTY 250955Z 2509/2611 VRB06KT 9999 BKN030 BKN050 QNH2958INS
BECMG 2517/2518 06009KT 8000 -SHRA BKN012 QNH2961INS
BECMG 2522/2523 06009KT 8000 -SHRA BKN008 OVC012 QNH2961INS TX22/2509Z TN12/2521Z

Example: see airport list